Time;durP1;ratioP1;P1;durP2;ratioP2;P2;SDS_P1;SDS_P2;PMS_P1;PMS_P2;Temp;Humidity;BMP_temperature;BMP_pressure;BME280_temperature;BME280_humidity;BME280_pressure;Samples;Min_cycle;Max_cycle;Signal;HPM_P1;HPM_P2
2021/11/15 00:02:13;;;;;;;11.47;8.53;;;11.80;99.90;;;;;;5011304;28;20502;-50
2021/11/15 00:04:39;;;;;;;10.90;8.20;;;11.80;99.90;;;;;;4995686;28;20717;-53
2021/11/15 00:07:05;;;;;;;10.80;7.80;;;11.80;99.90;;;;;;5008571;28;20474;-46
2021/11/15 00:09:31;;;;;;;9.17;7.47;;;11.90;99.90;;;;;;5012683;28;20615;-50
2021/11/15 00:11:56;;;;;;;11.37;7.47;;;11.90;99.90;;;;;;5013993;28;20211;-52
2021/11/15 00:14:22;;;;;;;11.33;7.80;;;11.90;99.90;;;;;;5005126;28;20546;-48
2021/11/15 00:16:48;;;;;;;9.20;7.43;;;11.80;99.90;;;;;;5014466;28;20215;-53
2021/11/15 00:19:15;;;;;;;9.80;7.50;;;11.80;99.90;;;;;;5011162;28;20275;-50
2021/11/15 00:21:41;;;;;;;10.70;8.17;;;11.80;99.90;;;;;;5009646;28;20448;-50
2021/11/15 00:24:07;;;;;;;11.67;8.00;;;11.80;99.90;;;;;;5016630;28;20450;-52
2021/11/15 00:26:33;;;;;;;10.57;7.63;;;11.70;99.90;;;;;;5012744;28;20447;-49
2021/11/15 00:28:59;;;;;;;13.20;8.73;;;11.70;99.90;;;;;;5008465;28;20449;-51
2021/11/15 00:31:25;;;;;;;15.20;8.30;;;11.70;99.90;;;;;;5009890;28;20467;-49
2021/11/15 00:33:52;;;;;;;11.03;7.80;;;11.70;99.90;;;;;;4992880;28;20223;-48
2021/11/15 00:36:18;;;;;;;10.27;7.70;;;11.70;99.90;;;;;;5010153;28;20500;-51
2021/11/15 00:38:45;;;;;;;11.13;7.70;;;11.70;99.90;;;;;;5015686;28;20443;-52
2021/11/15 00:41:10;;;;;;;12.03;8.37;;;11.80;99.90;;;;;;5014907;28;20585;-49
2021/11/15 00:43:36;;;;;;;11.10;7.97;;;11.80;99.90;;;;;;5015732;28;20546;-48
2021/11/15 00:46:02;;;;;;;12.53;8.60;;;11.80;99.90;;;;;;5011787;28;20281;-53
2021/11/15 00:48:28;;;;;;;11.67;8.13;;;11.70;99.90;;;;;;5014722;28;20941;-52
2021/11/15 00:50:53;;;;;;;11.17;8.57;;;11.70;99.90;;;;;;5014560;28;20529;-51
2021/11/15 00:53:19;;;;;;;12.67;8.50;;;11.80;99.90;;;;;;5013477;28;20291;-49
2021/11/15 00:55:44;;;;;;;12.23;9.30;;;11.80;99.90;;;;;;5013425;28;20291;-51
2021/11/15 00:58:10;;;;;;;12.10;8.10;;;11.70;99.90;;;;;;5009035;28;20215;-51
2021/11/15 01:00:37;;;;;;;11.13;8.97;;;11.60;99.90;;;;;;5018722;28;20222;-47
2021/11/15 01:03:06;;;;;;;11.90;9.77;;;11.60;99.90;;;;;;5013540;28;20463;-50
2021/11/15 01:05:34;;;;;;;17.30;11.20;;;11.60;99.90;;;;;;5015115;28;20582;-48
2021/11/15 01:08:00;;;;;;;10.97;8.30;;;11.70;99.90;;;;;;5016411;28;20431;-49
2021/11/15 01:10:26;;;;;;;13.93;10.10;;;11.60;99.90;;;;;;5008047;28;20854;-50
2021/11/15 01:12:52;;;;;;;11.57;8.80;;;11.70;99.90;;;;;;5016455;28;20482;-52
2021/11/15 01:15:21;;;;;;;10.60;8.33;;;11.80;99.90;;;;;;5014644;28;20979;-50
2021/11/15 01:17:49;;;;;;;11.40;9.07;;;11.80;99.90;;;;;;5014734;28;20188;-52
2021/11/15 01:20:17;;;;;;;12.00;9.23;;;11.80;99.90;;;;;;5018824;28;20443;-49
2021/11/15 01:22:43;;;;;;;12.50;9.57;;;11.70;99.90;;;;;;5010480;28;20454;-52
2021/11/15 01:25:10;;;;;;;12.33;9.20;;;11.60;99.90;;;;;;5014493;28;20447;-53
2021/11/15 01:27:36;;;;;;;12.13;9.60;;;11.70;99.90;;;;;;5013084;28;20200;-52
2021/11/15 01:30:04;;;;;;;10.77;8.60;;;11.70;99.90;;;;;;5013811;28;20506;-52
2021/11/15 01:32:30;;;;;;;14.57;9.03;;;11.60;99.90;;;;;;5011705;28;20463;-52
2021/11/15 01:34:55;;;;;;;13.97;9.93;;;11.50;99.90;;;;;;5013270;28;20925;-49
2021/11/15 01:37:21;;;;;;;14.07;10.17;;;11.50;99.90;;;;;;5007093;28;20604;-48
2021/11/15 01:39:47;;;;;;;14.60;10.10;;;11.50;99.90;;;;;;5013406;28;20188;-47
2021/11/15 01:42:13;;;;;;;14.50;10.50;;;11.50;99.90;;;;;;5013601;28;20468;-48
2021/11/15 01:44:39;;;;;;;13.40;9.47;;;11.50;99.90;;;;;;5013600;28;20803;-47
2021/11/15 01:47:05;;;;;;;11.97;9.13;;;11.50;99.90;;;;;;5013168;28;20185;-50
2021/11/15 01:49:32;;;;;;;12.40;9.67;;;11.60;99.90;;;;;;5013532;28;20255;-50
2021/11/15 01:51:58;;;;;;;12.80;9.47;;;11.50;99.90;;;;;;5009291;28;21207;-52
2021/11/15 01:54:24;;;;;;;14.30;10.03;;;11.50;99.90;;;;;;5014129;28;20501;-51
2021/11/15 01:56:51;;;;;;;14.43;9.47;;;11.40;99.90;;;;;;5014065;28;20217;-51
2021/11/15 01:59:18;;;;;;;14.90;10.07;;;11.40;99.90;;;;;;5013292;28;20886;-57
2021/11/15 02:01:43;;;;;;;13.67;10.00;;;11.40;99.90;;;;;;5013894;28;20462;-52
2021/11/15 02:04:09;;;;;;;14.07;8.90;;;11.30;99.90;;;;;;5016042;28;20446;-50
2021/11/15 02:06:35;;;;;;;16.60;9.70;;;11.30;99.90;;;;;;5013502;28;20708;-46
2021/11/15 02:09:03;;;;;;;13.30;10.77;;;11.40;99.90;;;;;;5017491;28;20203;-48
2021/11/15 02:11:29;;;;;;;13.77;8.40;;;11.40;99.90;;;;;;5015175;28;20459;-50
2021/11/15 02:13:54;;;;;;;13.30;9.10;;;11.40;99.90;;;;;;5014239;28;20463;-47
2021/11/15 02:16:20;;;;;;;13.73;8.90;;;11.40;99.90;;;;;;5019100;28;20227;-50
2021/11/15 02:18:46;;;;;;;14.30;8.20;;;11.50;99.90;;;;;;5016378;28;20188;-49
2021/11/15 02:21:11;;;;;;;13.50;9.13;;;11.50;99.90;;;;;;5019832;28;20185;-51
2021/11/15 02:23:41;;;;;;;14.30;9.47;;;11.40;99.90;;;;;;5018936;28;20258;-49
2021/11/15 02:26:10;;;;;;;14.20;9.80;;;11.50;99.90;;;;;;5015684;28;20184;-50
2021/11/15 02:28:39;;;;;;;11.07;8.50;;;11.50;99.90;;;;;;5018895;28;20435;-49
2021/11/15 02:31:07;;;;;;;15.07;9.47;;;11.50;99.90;;;;;;5013032;28;20475;-49
2021/11/15 02:33:34;;;;;;;16.87;10.50;;;11.40;99.90;;;;;;5013661;28;20948;-47
2021/11/15 02:36:01;;;;;;;15.23;9.13;;;11.40;99.90;;;;;;5021088;28;20442;-45
2021/11/15 02:38:27;;;;;;;17.90;11.47;;;11.40;99.90;;;;;;5017540;28;20438;-51
2021/11/15 02:40:54;;;;;;;14.33;9.43;;;11.20;99.90;;;;;;5019985;28;20438;-51
2021/11/15 02:43:19;;;;;;;12.90;9.10;;;11.20;99.90;;;;;;5015988;28;20471;-51
2021/11/15 02:45:45;;;;;;;15.17;9.40;;;11.30;99.90;;;;;;5016237;28;20470;-49
2021/11/15 02:48:12;;;;;;;16.83;10.70;;;11.30;99.90;;;;;;5019922;28;20274;-48
2021/11/15 02:50:38;;;;;;;15.20;8.33;;;11.20;99.90;;;;;;5014141;28;20470;-49
2021/11/15 02:53:07;;;;;;;12.90;8.50;;;11.30;99.90;;;;;;5015960;28;20459;-52
2021/11/15 02:55:33;;;;;;;14.90;9.70;;;11.30;99.90;;;;;;5016492;28;20462;-48
2021/11/15 02:58:01;;;;;;;17.50;9.93;;;11.30;99.90;;;;;;5014860;28;21023;-52
2021/11/15 03:00:43;;;;;;;15.53;10.20;;;11.30;99.90;;;;;;5002926;28;20585;-48
2021/11/15 03:03:10;;;;;;;13.93;10.20;;;11.30;99.90;;;;;;5013632;28;20455;-52
2021/11/15 03:05:39;;;;;;;14.77;9.50;;;11.30;99.90;;;;;;5017267;28;20439;-49
2021/11/15 03:08:07;;;;;;;16.40;10.47;;;11.30;99.90;;;;;;5013769;28;20809;-52
2021/11/15 03:10:34;;;;;;;15.70;9.70;;;11.20;99.90;;;;;;5015108;28;20518;-46
2021/11/15 03:13:00;;;;;;;14.07;9.50;;;11.20;99.90;;;;;;5010969;28;20560;-48
2021/11/15 03:15:39;;;;;;;16.23;9.47;;;11.20;99.90;;;;;;5011853;28;20955;-50
2021/11/15 03:18:08;;;;;;;16.00;10.00;;;11.30;99.90;;;;;;5013118;28;20455;-52
2021/11/15 03:20:39;;;;;;;14.60;10.07;;;11.20;99.90;;;;;;5018041;28;20794;-52
2021/11/15 03:23:09;;;;;;;15.07;9.97;;;11.30;99.90;;;;;;5016463;28;20471;-51
2021/11/15 03:25:35;;;;;;;15.23;9.20;;;11.20;99.90;;;;;;5015745;28;20435;-49
2021/11/15 03:28:02;;;;;;;18.17;11.40;;;11.30;99.90;;;;;;5015989;28;20439;-53
2021/11/15 03:30:27;;;;;;;17.20;10.10;;;11.20;99.90;;;;;;5016986;28;20459;-52
2021/11/15 03:32:54;;;;;;;13.30;8.80;;;11.20;99.90;;;;;;5036645;22;20540;-54
2021/11/15 03:35:19;;;;;;;13.30;10.00;;;11.20;99.90;;;;;;5035730;28;20190;-55
2021/11/15 03:37:46;;;;;;;13.73;8.70;;;11.10;99.90;;;;;;5032499;28;20439;-57
2021/11/15 03:40:19;;;;;;;17.23;10.13;;;11.00;99.90;;;;;;5037063;28;20210;-54
2021/11/15 03:42:45;;;;;;;14.87;9.57;;;11.10;99.90;;;;;;5028932;28;20455;-55
2021/11/15 03:45:12;;;;;;;14.27;9.47;;;11.10;99.90;;;;;;5018429;28;20477;-57
2021/11/15 03:47:37;;;;;;;16.17;10.00;;;11.10;99.90;;;;;;5018660;28;20197;-53
2021/11/15 03:50:05;;;;;;;15.07;9.87;;;11.10;99.90;;;;;;5020407;28;20999;-55
2021/11/15 03:52:31;;;;;;;19.97;11.20;;;11.20;99.90;;;;;;5023380;28;20204;-54
2021/11/15 03:54:56;;;;;;;21.90;12.90;;;11.20;99.90;;;;;;5022520;28;20447;-56
2021/11/15 03:57:22;;;;;;;13.20;8.77;;;11.10;99.90;;;;;;5016864;28;20295;-54
2021/11/15 03:59:48;;;;;;;15.03;9.17;;;11.10;99.90;;;;;;5015918;28;20218;-55
2021/11/15 04:02:14;;;;;;;17.10;10.30;;;11.10;99.90;;;;;;5017897;28;20540;-56
2021/11/15 04:04:53;;;;;;;15.90;10.37;;;11.10;99.90;;;;;;5022801;28;20447;-55
2021/11/15 04:07:30;;;;;;;14.40;9.67;;;10.90;99.90;;;;;;5019335;28;20315;-52
2021/11/15 04:09:59;;;;;;;20.87;11.90;;;11.00;99.90;;;;;;5018648;28;20535;-51
2021/11/15 04:12:26;;;;;;;15.70;10.03;;;11.00;99.90;;;;;;5018942;28;20882;-54
2021/11/15 04:14:52;;;;;;;15.67;10.23;;;10.90;99.90;;;;;;5017556;28;20439;-54
2021/11/15 04:17:19;;;;;;;17.20;10.20;;;11.00;99.90;;;;;;5017511;28;20448;-54
2021/11/15 04:19:47;;;;;;;21.03;11.00;;;11.00;99.90;;;;;;5020917;28;20439;-53
2021/11/15 04:22:13;;;;;;;20.10;11.37;;;11.10;99.90;;;;;;5016334;28;20798;-55
2021/11/15 04:24:39;;;;;;;17.40;11.47;;;11.10;99.90;;;;;;5016172;28;20796;-55
2021/11/15 04:27:05;;;;;;;17.00;10.60;;;10.90;99.90;;;;;;5013946;28;20440;-56
2021/11/15 04:29:31;;;;;;;19.37;11.00;;;11.00;99.90;;;;;;5020381;28;20189;-57
2021/11/15 04:31:57;;;;;;;20.73;10.60;;;11.00;99.90;;;;;;5019502;28;20431;-56
2021/11/15 04:34:23;;;;;;;15.73;10.03;;;11.00;99.90;;;;;;5014036;28;20876;-55
2021/11/15 04:36:48;;;;;;;13.37;9.13;;;11.00;99.90;;;;;;5018519;28;20263;-57
2021/11/15 04:39:14;;;;;;;14.83;10.30;;;11.00;99.90;;;;;;5017006;28;20695;-56
2021/11/15 04:41:40;;;;;;;16.10;10.27;;;11.00;99.90;;;;;;5019899;28;20193;-54
2021/11/15 04:44:06;;;;;;;15.50;10.73;;;11.00;99.90;;;;;;5019287;28;20211;-55
2021/11/15 04:46:31;;;;;;;18.10;10.80;;;10.90;99.90;;;;;;5017980;28;20192;-52
2021/11/15 04:48:57;;;;;;;14.27;10.00;;;10.80;99.90;;;;;;5015985;28;20455;-52
2021/11/15 04:51:23;;;;;;;16.50;10.43;;;10.80;99.90;;;;;;5016808;28;20532;-57
2021/11/15 04:53:48;;;;;;;17.40;10.70;;;10.80;99.90;;;;;;5020086;28;20205;-53
2021/11/15 04:56:14;;;;;;;15.77;10.47;;;10.70;99.90;;;;;;5018004;28;20184;-53
2021/11/15 04:58:40;;;;;;;15.73;10.07;;;10.80;99.90;;;;;;5016254;28;20184;-53
2021/11/15 05:01:07;;;;;;;14.57;10.23;;;10.80;99.90;;;;;;5016943;28;20443;-54
2021/11/15 05:03:35;;;;;;;16.43;11.37;;;10.80;99.90;;;;;;5016022;28;20208;-54
2021/11/15 05:06:01;;;;;;;16.97;10.67;;;10.80;99.90;;;;;;5013206;28;20482;-56
2021/11/15 05:08:26;;;;;;;16.33;10.87;;;10.80;99.90;;;;;;5015308;28;20447;-55
2021/11/15 05:10:52;;;;;;;17.67;10.73;;;10.90;99.90;;;;;;5014948;28;20471;-54
2021/11/15 05:13:17;;;;;;;18.00;9.50;;;10.80;99.90;;;;;;5017929;28;20204;-53
2021/11/15 05:15:43;;;;;;;18.70;11.20;;;10.80;99.90;;;;;;5018127;28;20682;-58
2021/11/15 05:18:09;;;;;;;19.67;11.30;;;10.70;99.90;;;;;;5018110;28;20230;-54
2021/11/15 05:20:34;;;;;;;13.53;10.03;;;10.70;99.90;;;;;;5017987;28;20661;-56
2021/11/15 05:23:00;;;;;;;16.03;9.53;;;10.70;99.90;;;;;;5021718;28;20297;-56
2021/11/15 05:25:26;;;;;;;14.87;10.63;;;10.70;99.90;;;;;;5017767;28;20327;-58
2021/11/15 05:27:52;;;;;;;11.63;9.20;;;10.60;99.90;;;;;;5018619;28;20176;-54
2021/11/15 05:30:19;;;;;;;16.00;10.80;;;10.60;99.90;;;;;;5015758;28;20814;-53
2021/11/15 05:32:46;;;;;;;12.70;9.13;;;10.70;99.90;;;;;;5019718;28;20261;-53
2021/11/15 05:35:12;;;;;;;13.73;9.67;;;10.60;99.90;;;;;;5017011;28;20454;-56
2021/11/15 05:37:37;;;;;;;15.40;9.03;;;10.60;99.90;;;;;;5015273;28;20438;-51
2021/11/15 05:40:05;;;;;;;18.87;10.33;;;10.70;99.90;;;;;;5017156;28;21051;-53
2021/11/15 05:42:31;;;;;;;13.70;9.50;;;10.70;99.90;;;;;;5016483;28;20215;-56
2021/11/15 05:44:57;;;;;;;15.60;9.30;;;10.70;99.90;;;;;;5016362;28;20442;-57
2021/11/15 05:47:22;;;;;;;16.03;10.13;;;10.70;99.90;;;;;;5020379;28;20189;-55
2021/11/15 05:49:48;;;;;;;12.77;9.40;;;10.60;99.90;;;;;;5017122;28;20278;-57
2021/11/15 05:52:16;;;;;;;15.10;9.80;;;10.60;99.90;;;;;;5019657;28;20529;-56
2021/11/15 05:54:42;;;;;;;13.50;8.60;;;10.70;99.90;;;;;;5020013;28;20952;-52
2021/11/15 05:57:08;;;;;;;15.20;10.63;;;10.60;99.90;;;;;;5021361;28;20536;-56
2021/11/15 05:59:34;;;;;;;14.63;10.30;;;10.50;99.90;;;;;;5021416;28;20540;-56
2021/11/15 06:01:59;;;;;;;17.20;9.83;;;10.60;99.90;;;;;;5019359;28;20188;-52
2021/11/15 06:04:25;;;;;;;16.50;10.67;;;10.70;99.90;;;;;;5020580;28;20188;-55
2021/11/15 06:06:51;;;;;;;13.53;9.37;;;10.70;99.90;;;;;;5019124;28;20296;-57
2021/11/15 06:09:17;;;;;;;14.20;9.97;;;10.70;99.90;;;;;;5024038;28;20702;-54
2021/11/15 06:11:44;;;;;;;12.87;8.77;;;10.60;99.90;;;;;;5022697;28;20705;-57
2021/11/15 06:14:10;;;;;;;13.50;9.60;;;10.70;99.90;;;;;;5018879;28;20467;-56
2021/11/15 06:16:35;;;;;;;12.90;9.43;;;10.70;99.90;;;;;;5018875;28;20444;-57
2021/11/15 06:19:01;;;;;;;18.80;10.33;;;10.70;99.90;;;;;;5018535;28;20189;-56
2021/11/15 06:21:27;;;;;;;15.00;9.60;;;10.60;99.90;;;;;;5016323;28;20192;-54
2021/11/15 06:23:52;;;;;;;13.03;9.70;;;10.70;99.90;;;;;;5019336;28;20221;-53
2021/11/15 06:26:18;;;;;;;15.20;10.00;;;10.70;99.90;;;;;;5018972;28;20193;-55
2021/11/15 06:28:47;;;;;;;14.93;9.67;;;10.60;99.90;;;;;;5019264;28;20184;-57
2021/11/15 06:31:13;;;;;;;16.33;10.47;;;10.70;99.90;;;;;;5019061;28;20585;-56
2021/11/15 06:33:39;;;;;;;15.60;11.03;;;10.70;99.90;;;;;;5020030;28;20843;-56
2021/11/15 06:36:05;;;;;;;13.57;10.47;;;10.70;99.90;;;;;;5021702;28;20733;-56
2021/11/15 06:38:31;;;;;;;11.50;9.20;;;10.70;99.90;;;;;;5022400;28;20185;-57
2021/11/15 06:40:56;;;;;;;11.93;9.10;;;10.80;99.90;;;;;;5019842;28;20906;-54
2021/11/15 06:43:22;;;;;;;16.43;9.77;;;10.80;99.90;;;;;;5019431;28;20303;-58
2021/11/15 06:45:47;;;;;;;13.93;9.23;;;10.80;99.90;;;;;;5019045;28;20191;-56
2021/11/15 06:48:13;;;;;;;17.00;10.90;;;10.80;99.90;;;;;;5022268;28;20195;-54
2021/11/15 06:50:39;;;;;;;14.40;10.03;;;10.80;99.90;;;;;;5016375;28;20205;-56
2021/11/15 06:53:05;;;;;;;17.87;10.30;;;10.80;99.90;;;;;;5022136;28;20947;-57
2021/11/15 06:55:31;;;;;;;15.47;10.47;;;10.80;99.90;;;;;;5017356;28;20184;-54
2021/11/15 06:57:57;;;;;;;14.30;10.33;;;10.70;99.90;;;;;;5018873;28;20629;-54
2021/11/15 07:00:25;;;;;;;16.10;11.10;;;10.80;99.90;;;;;;5019369;28;20465;-55
2021/11/15 07:02:53;;;;;;;13.87;9.87;;;10.80;99.90;;;;;;5019356;28;21003;-56
2021/11/15 07:05:21;;;;;;;10.30;8.33;;;10.70;99.90;;;;;;5018109;28;20454;-56
2021/11/15 07:07:48;;;;;;;16.83;10.20;;;10.70;99.90;;;;;;5018908;28;20442;-57
2021/11/15 07:10:15;;;;;;;13.87;9.70;;;10.80;99.90;;;;;;5016198;28;20546;-56
2021/11/15 07:12:42;;;;;;;12.57;9.27;;;10.60;99.90;;;;;;5015608;28;22344;-57
2021/11/15 07:15:09;;;;;;;14.07;9.20;;;10.70;99.90;;;;;;5012810;28;20439;-55
2021/11/15 07:17:34;;;;;;;13.73;9.77;;;10.70;99.90;;;;;;5014915;28;20537;-55
2021/11/15 07:20:00;;;;;;;12.23;9.20;;;10.70;99.90;;;;;;5016342;28;20824;-50
2021/11/15 07:22:25;;;;;;;17.50;9.23;;;10.60;99.90;;;;;;5019131;28;20307;-55
2021/11/15 07:24:51;;;;;;;13.50;9.43;;;10.60;99.90;;;;;;5019932;28;20658;-53
2021/11/15 07:27:17;;;;;;;13.67;11.23;;;10.70;99.90;;;;;;5014248;28;20259;-53
2021/11/15 07:29:43;;;;;;;13.87;9.90;;;10.60;99.90;;;;;;5020320;28;20203;-53
2021/11/15 07:32:12;;;;;;;13.07;8.23;;;10.60;99.90;;;;;;5016321;28;20635;-54
2021/11/15 07:34:39;;;;;;;11.80;9.13;;;10.40;99.90;;;;;;5010871;28;20204;-52
2021/11/15 07:37:05;;;;;;;15.63;9.53;;;10.40;99.90;;;;;;5019211;28;20829;-53
2021/11/15 07:39:31;;;;;;;17.40;11.63;;;10.40;99.90;;;;;;5018894;28;20475;-53
2021/11/15 07:41:57;;;;;;;12.63;8.80;;;10.30;99.90;;;;;;5024904;28;20467;-54
2021/11/15 07:44:23;;;;;;;13.43;9.63;;;10.40;99.90;;;;;;5020621;28;20205;-51
2021/11/15 07:46:48;;;;;;;13.60;9.03;;;10.40;99.90;;;;;;5023680;28;20517;-55
2021/11/15 07:49:15;;;;;;;10.93;8.20;;;10.50;99.90;;;;;;5022339;28;21030;-52
2021/11/15 07:51:40;;;;;;;12.10;9.40;;;10.40;99.90;;;;;;5021601;28;20228;-54
2021/11/15 07:54:07;;;;;;;14.27;9.73;;;10.50;99.90;;;;;;5020128;28;20490;-53
2021/11/15 07:56:33;;;;;;;12.70;9.83;;;10.60;99.90;;;;;;5022885;28;20609;-52
2021/11/15 07:58:59;;;;;;;14.43;9.53;;;10.60;99.90;;;;;;5021458;28;20492;-53
2021/11/15 08:01:25;;;;;;;11.20;9.30;;;10.60;99.90;;;;;;5021578;28;20435;-51
2021/11/15 08:03:51;;;;;;;13.50;9.77;;;10.70;99.90;;;;;;5018936;28;20205;-56
2021/11/15 08:06:16;;;;;;;12.20;9.67;;;10.60;99.90;;;;;;5022069;28;20883;-55
2021/11/15 08:08:43;;;;;;;18.33;10.43;;;10.50;99.90;;;;;;5018444;28;20223;-51
2021/11/15 08:11:10;;;;;;;13.77;9.33;;;10.50;99.90;;;;;;5021112;28;20263;-52
2021/11/15 08:13:37;;;;;;;16.93;10.87;;;10.60;99.90;;;;;;5024709;28;20529;-51
2021/11/15 08:16:05;;;;;;;12.90;9.03;;;10.70;99.90;;;;;;5019805;28;20462;-56
2021/11/15 08:18:30;;;;;;;15.40;9.97;;;10.70;99.90;;;;;;5020389;28;20189;-51
2021/11/15 08:20:56;;;;;;;13.60;9.17;;;10.50;99.90;;;;;;5019992;28;20531;-53
2021/11/15 08:23:22;;;;;;;14.43;9.23;;;10.60;99.90;;;;;;5022135;28;20236;-56
2021/11/15 08:26:35;;;;;;;16.80;10.10;;;10.60;99.90;;;;;;5018375;28;20239;-56
2021/11/15 08:29:05;;;;;;;14.10;9.60;;;10.60;99.90;;;;;;5023681;28;20909;-52
2021/11/15 08:31:31;;;;;;;16.90;10.20;;;10.60;99.90;;;;;;5022657;28;20470;-55
2021/11/15 08:33:57;;;;;;;15.50;9.73;;;10.70;99.90;;;;;;5017791;28;20995;-55
2021/11/15 08:36:23;;;;;;;16.80;11.83;;;10.60;99.90;;;;;;5021899;28;20448;-55
2021/11/15 08:38:58;;;;;;;16.13;9.60;;;10.60;99.90;;;;;;5020781;28;20431;-53
2021/11/15 08:41:34;;;;;;;14.20;9.47;;;10.60;99.90;;;;;;5022220;28;20965;-55
2021/11/15 08:44:01;;;;;;;12.43;9.70;;;10.60;99.90;;;;;;5018499;28;20485;-50
2021/11/15 08:46:29;;;;;;;9.63;8.00;;;10.50;99.90;;;;;;5029791;28;20451;-54
2021/11/15 08:48:56;;;;;;;12.03;9.13;;;10.60;99.90;;;;;;5016851;28;20710;-54
2021/11/15 08:51:22;;;;;;;15.23;8.40;;;10.60;99.90;;;;;;5017680;28;20502;-53
2021/11/15 08:53:50;;;;;;;13.03;8.70;;;10.60;99.90;;;;;;5015171;28;20876;-55
2021/11/15 08:56:17;;;;;;;14.80;9.37;;;10.70;99.90;;;;;;5016975;28;20490;-54
2021/11/15 08:58:43;;;;;;;14.00;8.87;;;10.70;99.90;;;;;;5015823;28;20493;-54
2021/11/15 09:01:09;;;;;;;11.97;8.97;;;10.80;99.90;;;;;;5015216;28;20443;-54
2021/11/15 09:03:38;;;;;;;13.13;9.50;;;10.80;99.90;;;;;;5016153;28;20338;-52
2021/11/15 09:06:05;;;;;;;12.37;9.60;;;10.80;99.90;;;;;;5016403;28;20538;-49
2021/11/15 09:08:30;;;;;;;11.10;8.53;;;10.70;99.90;;;;;;5016236;28;20462;-51
2021/11/15 09:10:56;;;;;;;15.53;10.10;;;10.70;99.90;;;;;;5021260;28;20472;-52
2021/11/15 09:13:22;;;;;;;13.20;8.70;;;10.70;99.90;;;;;;5018885;28;21014;-55
2021/11/15 09:15:47;;;;;;;14.70;8.73;;;10.80;99.90;;;;;;5017541;28;20718;-55
2021/11/15 09:18:19;;;;;;;14.07;9.97;;;10.80;99.90;;;;;;5019968;28;20184;-55
2021/11/15 09:20:45;;;;;;;14.70;8.37;;;10.80;99.90;;;;;;5019084;28;20188;-56
2021/11/15 09:23:10;;;;;;;14.97;9.80;;;10.80;99.90;;;;;;5018339;28;20990;-53
2021/11/15 09:25:37;;;;;;;43.03;11.80;;;10.90;99.90;;;;;;5020629;28;20192;-55
2021/11/15 09:28:03;;;;;;;54.63;11.00;;;10.90;99.90;;;;;;5017517;28;20362;-55
2021/11/15 09:30:29;;;;;;;15.77;9.40;;;11.00;99.90;;;;;;5017781;28;20528;-54
2021/11/15 09:32:55;;;;;;;68.13;13.20;;;11.00;99.90;;;;;;5016620;28;20463;-51
2021/11/15 09:35:20;;;;;;;21.03;9.03;;;11.10;99.90;;;;;;5017655;28;20192;-53
2021/11/15 09:37:46;;;;;;;44.27;9.50;;;11.00;99.90;;;;;;5020004;28;20627;-56
2021/11/15 09:40:14;;;;;;;16.70;7.67;;;10.90;99.90;;;;;;5017214;28;20212;-51
2021/11/15 09:42:40;;;;;;;12.43;7.90;;;11.00;99.90;;;;;;5018391;28;20463;-53
2021/11/15 09:45:07;;;;;;;12.17;8.50;;;11.00;99.90;;;;;;5016770;28;20439;-54
2021/11/15 09:47:36;;;;;;;12.67;7.10;;;10.90;99.90;;;;;;5018841;28;20482;-53
2021/11/15 09:50:02;;;;;;;13.07;8.43;;;10.80;99.90;;;;;;5022380;28;21003;-54
2021/11/15 09:52:28;;;;;;;17.80;8.23;;;11.00;99.90;;;;;;5018514;28;20455;-54
2021/11/15 09:54:53;;;;;;;15.10;8.93;;;10.90;99.90;;;;;;5017897;28;20989;-55
2021/11/15 09:57:19;;;;;;;14.70;10.33;;;10.90;99.90;;;;;;5020104;28;20185;-55
2021/11/15 09:59:45;;;;;;;14.30;9.07;;;10.90;99.90;;;;;;5019564;28;20267;-55
2021/11/15 10:02:11;;;;;;;11.97;7.90;;;10.80;99.90;;;;;;5011511;28;20189;-55
2021/11/15 10:04:38;;;;;;;11.80;8.40;;;10.80;99.90;;;;;;5019696;28;20873;-55
2021/11/15 10:07:04;;;;;;;10.83;7.13;;;10.80;99.90;;;;;;5019406;28;20427;-53
2021/11/15 10:09:32;;;;;;;11.10;7.83;;;10.70;99.90;;;;;;5013891;28;20461;-55
2021/11/15 10:12:08;;;;;;;11.93;8.50;;;10.80;99.90;;;;;;5018598;28;20215;-55
2021/11/15 10:14:34;;;;;;;14.77;8.07;;;10.80;99.90;;;;;;5018816;28;20820;-55
2021/11/15 10:17:01;;;;;;;9.63;6.90;;;10.80;99.90;;;;;;5018830;28;20481;-56
2021/11/15 10:19:32;;;;;;;16.03;7.80;;;10.80;99.90;;;;;;5018022;28;20198;-55
2021/11/15 10:22:06;;;;;;;16.73;8.53;;;10.70;99.90;;;;;;5019659;28;20463;-54
2021/11/15 10:24:37;;;;;;;10.63;6.80;;;10.70;99.90;;;;;;5018947;28;20517;-52
2021/11/15 10:27:10;;;;;;;10.23;6.90;;;10.90;99.90;;;;;;5030306;28;20987;-57
2021/11/15 10:29:41;;;;;;;10.23;7.50;;;10.90;99.90;;;;;;5016508;28;20427;-49
2021/11/15 10:32:12;;;;;;;10.83;7.13;;;10.80;99.90;;;;;;5020762;28;20481;-52
2021/11/15 10:34:47;;;;;;;8.63;6.30;;;10.70;99.90;;;;;;5020951;28;20450;-55
2021/11/15 10:37:14;;;;;;;10.40;8.37;;;10.60;99.90;;;;;;5020406;28;20947;-50
2021/11/15 10:39:42;;;;;;;12.90;7.10;;;10.70;99.90;;;;;;5019415;28;20435;-53
2021/11/15 10:42:20;;;;;;;13.70;8.10;;;10.80;99.90;;;;;;5021991;28;20443;-54
2021/11/15 10:44:53;;;;;;;11.73;7.20;;;10.80;99.90;;;;;;5021006;28;20443;-52
2021/11/15 10:47:32;;;;;;;10.97;7.90;;;10.80;99.90;;;;;;5021301;28;20442;-50
2021/11/15 10:50:43;;;;;;;8.80;6.40;;;10.80;99.90;;;;;;5020258;28;20569;-52
2021/11/15 10:53:13;;;;;;;11.50;6.73;;;10.70;99.90;;;;;;5019434;28;20463;-55
2021/11/15 10:56:01;;;;;;;11.23;7.03;;;10.80;99.90;;;;;;5017132;28;20443;-55
2021/11/15 10:58:27;;;;;;;9.57;7.00;;;10.80;99.90;;;;;;5016841;28;20447;-52
2021/11/15 11:00:59;;;;;;;11.20;6.57;;;10.70;99.90;;;;;;5019057;28;20811;-55
2021/11/15 11:03:27;;;;;;;9.03;6.60;;;10.80;99.90;;;;;;5017705;28;20560;-53
2021/11/15 11:05:56;;;;;;;11.70;8.13;;;10.80;99.90;;;;;;5022447;28;20963;-51
2021/11/15 11:08:26;;;;;;;11.53;6.80;;;10.90;99.90;;;;;;5021168;28;20518;-56
2021/11/15 11:11:08;;;;;;;16.23;7.83;;;10.90;99.90;;;;;;5020045;28;20561;-54
2021/11/15 11:13:49;;;;;;;9.80;7.10;;;10.80;99.90;;;;;;5016992;28;20442;-54
2021/11/15 11:16:17;;;;;;;10.93;7.00;;;10.80;99.90;;;;;;5021338;28;20500;-54
2021/11/15 11:18:48;;;;;;;10.30;7.23;;;10.80;99.90;;;;;;5021467;28;20827;-56
2021/11/15 11:26:29;;;;;;;12.40;7.30;;;10.80;99.90;;;;;;5020135;28;20440;-54
2021/11/15 11:29:15;;;;;;;9.00;7.23;;;10.90;99.90;;;;;;5022149;28;20526;-51
2021/11/15 11:31:43;;;;;;;9.03;6.93;;;10.90;99.90;;;;;;5020201;28;20538;-54
2021/11/15 11:34:10;;;;;;;11.50;6.57;;;11.00;99.90;;;;;;5019204;28;20463;-51
2021/11/15 11:36:37;;;;;;;13.43;7.80;;;11.00;99.90;;;;;;5020568;28;20455;-53
2021/11/15 11:39:08;;;;;;;13.17;7.30;;;10.90;99.90;;;;;;5021683;28;20452;-52
2021/11/15 11:41:35;;;;;;;11.10;7.17;;;10.90;99.90;;;;;;5019674;28;20514;-54
2021/11/15 11:44:03;;;;;;;14.00;7.93;;;10.80;99.90;;;;;;5020152;28;20466;-55
2021/11/15 11:46:29;;;;;;;10.63;7.30;;;10.70;99.90;;;;;;5018928;28;20446;-55
2021/11/15 11:48:55;;;;;;;13.30;7.77;;;10.80;99.90;;;;;;5018900;28;20490;-51
2021/11/15 11:51:23;;;;;;;13.50;7.90;;;10.90;99.90;;;;;;5018413;28;20475;-57
2021/11/15 11:54:08;;;;;;;14.20;7.77;;;10.80;99.90;;;;;;5016869;28;20459;-55
2021/11/15 11:56:35;;;;;;;10.10;7.40;;;10.80;99.90;;;;;;5017256;28;20427;-51
2021/11/15 11:59:19;;;;;;;11.23;7.23;;;10.90;99.90;;;;;;5014890;28;20439;-56
2021/11/15 12:01:58;;;;;;;13.03;7.20;;;10.90;99.90;;;;;;5018037;28;20457;-55
2021/11/15 12:04:26;;;;;;;11.00;7.63;;;10.90;99.90;;;;;;5017536;28;20451;-55
2021/11/15 12:06:52;;;;;;;12.00;7.80;;;10.80;99.90;;;;;;5017979;28;20795;-54
2021/11/15 12:09:19;;;;;;;16.43;8.47;;;10.90;99.90;;;;;;5019444;28;20435;-55
2021/11/15 12:11:53;;;;;;;10.93;7.40;;;11.00;99.90;;;;;;5015348;28;21062;-55
2021/11/15 12:14:32;;;;;;;12.27;8.60;;;11.00;99.90;;;;;;5020435;28;20468;-53
2021/11/15 12:17:00;;;;;;;15.77;9.07;;;11.00;99.90;;;;;;5019132;28;20484;-55
2021/11/15 12:19:47;;;;;;;10.40;7.60;;;11.00;99.90;;;;;;5017917;28;20431;-55
2021/11/15 12:22:19;;;;;;;12.57;8.70;;;11.00;99.90;;;;;;5018890;28;20438;-54
2021/11/15 12:25:04;;;;;;;13.17;8.07;;;10.90;99.90;;;;;;5015179;28;20444;-52
2021/11/15 12:27:46;;;;;;;11.00;8.10;;;10.90;99.90;;;;;;5018465;28;20511;-54
2021/11/15 12:30:14;;;;;;;12.63;8.43;;;11.00;99.90;;;;;;5016684;28;20566;-51
2021/11/15 12:32:42;;;;;;;12.50;8.93;;;10.90;99.90;;;;;;5016747;28;21039;-55
2021/11/15 12:35:08;;;;;;;16.07;8.07;;;10.90;99.90;;;;;;5017848;28;20420;-56
2021/11/15 12:37:40;;;;;;;15.37;8.60;;;11.00;99.90;;;;;;5017877;28;20442;-51
2021/11/15 12:40:08;;;;;;;13.27;9.37;;;11.00;99.90;;;;;;5017517;28;20815;-50
2021/11/15 12:42:34;;;;;;;15.20;9.60;;;10.90;99.90;;;;;;5021379;28;20496;-56
2021/11/15 12:45:22;;;;;;;12.40;7.50;;;10.80;99.90;;;;;;5018741;28;20531;-55